sensor_id;sensor_type;location;lat;lon;timestamp;P1;durP1;ratioP1;P2;durP2;ratioP2
29432;SDS011;16405;53.964;13.448;2023-02-18T00:01:50;16.10;;;2.83;;
29432;SDS011;16405;53.964;13.448;2023-02-18T00:04:16;28.77;;;3.63;;
29432;SDS011;16405;53.964;13.448;2023-02-18T00:06:42;20.95;;;3.00;;
29432;SDS011;16405;53.964;13.448;2023-02-18T00:09:17;28.48;;;3.05;;
29432;SDS011;16405;53.964;13.448;2023-02-18T00:11:43;28.30;;;3.72;;
29432;SDS011;16405;53.964;13.448;2023-02-18T00:14:13;17.58;;;2.67;;
29432;SDS011;16405;53.964;13.448;2023-02-18T00:16:43;22.40;;;3.30;;
29432;SDS011;16405;53.964;13.448;2023-02-18T00:19:14;19.88;;;2.95;;
29432;SDS011;16405;53.964;13.448;2023-02-18T00:21:42;19.20;;;2.85;;
29432;SDS011;16405;53.964;13.448;2023-02-18T00:24:15;29.55;;;3.60;;
29432;SDS011;16405;53.964;13.448;2023-02-18T00:26:41;19.67;;;3.05;;
29432;SDS011;16405;53.964;13.448;2023-02-18T00:29:08;21.73;;;3.78;;
29432;SDS011;16405;53.964;13.448;2023-02-18T00:31:41;24.63;;;4.10;;
29432;SDS011;16405;53.964;13.448;2023-02-18T00:34:08;22.23;;;4.55;;
29432;SDS011;16405;53.964;13.448;2023-02-18T00:36:39;16.52;;;3.40;;
29432;SDS011;16405;53.964;13.448;2023-02-18T00:39:09;26.80;;;3.95;;
29432;SDS011;16405;53.964;13.448;2023-02-18T00:41:36;23.70;;;2.72;;
29432;SDS011;16405;53.964;13.448;2023-02-18T00:44:03;19.73;;;3.38;;
29432;SDS011;16405;53.964;13.448;2023-02-18T00:46:38;17.95;;;3.17;;
29432;SDS011;16405;53.964;13.448;2023-02-18T00:49:05;24.80;;;4.25;;
29432;SDS011;16405;53.964;13.448;2023-02-18T00:51:31;25.25;;;3.47;;
29432;SDS011;16405;53.964;13.448;2023-02-18T00:54:02;26.85;;;4.72;;
29432;SDS011;16405;53.964;13.448;2023-02-18T00:56:30;24.35;;;4.75;;
29432;SDS011;16405;53.964;13.448;2023-02-18T00:58:56;17.58;;;3.25;;
29432;SDS011;16405;53.964;13.448;2023-02-18T01:01:26;28.83;;;3.67;;
29432;SDS011;16405;53.964;13.448;2023-02-18T01:04:01;30.05;;;3.95;;
29432;SDS011;16405;53.964;13.448;2023-02-18T01:06:27;15.73;;;2.15;;
29432;SDS011;16405;53.964;13.448;2023-02-18T01:09:00;26.60;;;3.47;;
29432;SDS011;16405;53.964;13.448;2023-02-18T01:11:26;23.15;;;3.40;;
29432;SDS011;16405;53.964;13.448;2023-02-18T01:13:52;20.42;;;4.53;;
29432;SDS011;16405;53.964;13.448;2023-02-18T01:16:18;26.65;;;3.50;;
29432;SDS011;16405;53.964;13.448;2023-02-18T01:18:51;27.55;;;4.55;;
29432;SDS011;16405;53.964;13.448;2023-02-18T01:21:17;26.95;;;3.35;;
29432;SDS011;16405;53.964;13.448;2023-02-18T01:23:43;32.30;;;4.47;;
29432;SDS011;16405;53.964;13.448;2023-02-18T01:26:09;27.83;;;3.47;;
29432;SDS011;16405;53.964;13.448;2023-02-18T01:28:36;25.17;;;4.28;;
29432;SDS011;16405;53.964;13.448;2023-02-18T01:31:06;25.35;;;3.13;;
29432;SDS011;16405;53.964;13.448;2023-02-18T01:33:36;23.98;;;4.10;;
29432;SDS011;16405;53.964;13.448;2023-02-18T01:36:03;30.10;;;5.28;;
29432;SDS011;16405;53.964;13.448;2023-02-18T01:38:36;28.50;;;4.68;;
29432;SDS011;16405;53.964;13.448;2023-02-18T01:41:31;30.38;;;3.67;;
29432;SDS011;16405;53.964;13.448;2023-02-18T01:46:41;29.48;;;4.25;;
29432;SDS011;16405;53.964;13.448;2023-02-18T01:49:07;27.77;;;4.00;;
29432;SDS011;16405;53.964;13.448;2023-02-18T01:51:39;26.02;;;4.00;;
29432;SDS011;16405;53.964;13.448;2023-02-18T01:54:26;26.40;;;3.50;;
29432;SDS011;16405;53.964;13.448;2023-02-18T01:57:21;34.60;;;3.97;;
29432;SDS011;16405;53.964;13.448;2023-02-18T01:59:59;26.25;;;3.92;;
29432;SDS011;16405;53.964;13.448;2023-02-18T02:02:36;30.23;;;4.30;;
29432;SDS011;16405;53.964;13.448;2023-02-18T02:05:08;32.03;;;4.85;;
29432;SDS011;16405;53.964;13.448;2023-02-18T02:07:42;41.28;;;5.03;;
29432;SDS011;16405;53.964;13.448;2023-02-18T02:10:11;31.45;;;4.40;;
29432;SDS011;16405;53.964;13.448;2023-02-18T02:13:06;22.58;;;3.95;;
29432;SDS011;16405;53.964;13.448;2023-02-18T02:15:57;34.22;;;4.03;;
29432;SDS011;16405;53.964;13.448;2023-02-18T02:27:18;27.58;;;4.07;;
29432;SDS011;16405;53.964;13.448;2023-02-18T02:42:39;33.45;;;4.57;;
29432;SDS011;16405;53.964;13.448;2023-02-18T02:48:41;28.73;;;4.47;;
29432;SDS011;16405;53.964;13.448;2023-02-18T02:51:30;30.48;;;4.07;;
29432;SDS011;16405;53.964;13.448;2023-02-18T02:54:24;28.35;;;4.85;;
29432;SDS011;16405;53.964;13.448;2023-02-18T03:00:00;27.52;;;4.47;;
29432;SDS011;16405;53.964;13.448;2023-02-18T03:02:55;25.17;;;3.95;;
29432;SDS011;16405;53.964;13.448;2023-02-18T03:08:54;21.50;;;3.63;;
29432;SDS011;16405;53.964;13.448;2023-02-18T03:11:57;33.72;;;5.07;;
29432;SDS011;16405;53.964;13.448;2023-02-18T03:15:03;30.95;;;3.88;;
29432;SDS011;16405;53.964;13.448;2023-02-18T03:17:59;25.17;;;3.72;;
29432;SDS011;16405;53.964;13.448;2023-02-18T03:20:32;28.25;;;4.07;;
29432;SDS011;16405;53.964;13.448;2023-02-18T03:23:02;28.33;;;4.38;;
29432;SDS011;16405;53.964;13.448;2023-02-18T03:25:33;35.05;;;6.75;;
29432;SDS011;16405;53.964;13.448;2023-02-18T03:28:01;29.65;;;4.63;;
29432;SDS011;16405;53.964;13.448;2023-02-18T03:30:42;26.75;;;4.25;;
29432;SDS011;16405;53.964;13.448;2023-02-18T03:33:22;28.25;;;4.10;;
29432;SDS011;16405;53.964;13.448;2023-02-18T03:36:27;27.88;;;4.10;;
29432;SDS011;16405;53.964;13.448;2023-02-18T03:38:55;33.70;;;4.03;;
29432;SDS011;16405;53.964;13.448;2023-02-18T03:41:37;19.17;;;3.50;;
29432;SDS011;16405;53.964;13.448;2023-02-18T03:44:04;37.03;;;3.90;;
29432;SDS011;16405;53.964;13.448;2023-02-18T03:46:35;27.48;;;3.95;;
29432;SDS011;16405;53.964;13.448;2023-02-18T03:49:04;39.53;;;5.43;;
29432;SDS011;16405;53.964;13.448;2023-02-18T03:51:31;29.23;;;4.30;;
29432;SDS011;16405;53.964;13.448;2023-02-18T03:53:57;32.03;;;3.22;;
29432;SDS011;16405;53.964;13.448;2023-02-18T03:56:32;34.28;;;3.80;;
29432;SDS011;16405;53.964;13.448;2023-02-18T03:58:59;42.80;;;4.20;;
29432;SDS011;16405;53.964;13.448;2023-02-18T04:01:34;34.63;;;4.78;;
29432;SDS011;16405;53.964;13.448;2023-02-18T04:04:00;49.55;;;4.80;;
29432;SDS011;16405;53.964;13.448;2023-02-18T04:06:27;35.15;;;4.93;;
29432;SDS011;16405;53.964;13.448;2023-02-18T04:08:55;31.70;;;5.30;;
29432;SDS011;16405;53.964;13.448;2023-02-18T04:11:24;39.17;;;4.80;;
29432;SDS011;16405;53.964;13.448;2023-02-18T04:13:50;37.38;;;4.28;;
29432;SDS011;16405;53.964;13.448;2023-02-18T04:16:16;34.80;;;4.45;;
29432;SDS011;16405;53.964;13.448;2023-02-18T04:18:44;21.20;;;3.55;;
29432;SDS011;16405;53.964;13.448;2023-02-18T04:21:15;28.67;;;3.58;;
29432;SDS011;16405;53.964;13.448;2023-02-18T04:23:41;34.85;;;3.88;;
29432;SDS011;16405;53.964;13.448;2023-02-18T04:26:07;22.77;;;4.47;;
29432;SDS011;16405;53.964;13.448;2023-02-18T04:28:33;24.75;;;3.35;;
29432;SDS011;16405;53.964;13.448;2023-02-18T04:30:59;45.92;;;5.03;;
29432;SDS011;16405;53.964;13.448;2023-02-18T04:33:32;30.38;;;3.78;;
29432;SDS011;16405;53.964;13.448;2023-02-18T04:35:58;26.20;;;3.83;;
29432;SDS011;16405;53.964;13.448;2023-02-18T04:38:24;39.85;;;5.00;;
29432;SDS011;16405;53.964;13.448;2023-02-18T04:40:50;37.10;;;3.97;;
29432;SDS011;16405;53.964;13.448;2023-02-18T04:43:15;30.33;;;4.35;;
29432;SDS011;16405;53.964;13.448;2023-02-18T04:45:43;25.83;;;4.32;;
29432;SDS011;16405;53.964;13.448;2023-02-18T04:48:14;23.35;;;4.68;;
29432;SDS011;16405;53.964;13.448;2023-02-18T04:50:39;31.40;;;3.97;;
29432;SDS011;16405;53.964;13.448;2023-02-18T04:53:08;32.58;;;4.07;;
29432;SDS011;16405;53.964;13.448;2023-02-18T04:55:38;24.42;;;3.33;;
29432;SDS011;16405;53.964;13.448;2023-02-18T04:58:04;33.10;;;3.67;;
29432;SDS011;16405;53.964;13.448;2023-02-18T05:00:30;27.65;;;4.25;;
29432;SDS011;16405;53.964;13.448;2023-02-18T05:02:56;31.48;;;3.00;;
29432;SDS011;16405;53.964;13.448;2023-02-18T05:05:22;32.53;;;4.25;;
29432;SDS011;16405;53.964;13.448;2023-02-18T05:07:47;21.73;;;3.22;;
29432;SDS011;16405;53.964;13.448;2023-02-18T05:10:19;28.17;;;3.55;;
29432;SDS011;16405;53.964;13.448;2023-02-18T05:12:45;29.70;;;4.38;;
29432;SDS011;16405;53.964;13.448;2023-02-18T05:15:14;37.63;;;4.53;;
29432;SDS011;16405;53.964;13.448;2023-02-18T05:17:40;41.40;;;4.25;;
29432;SDS011;16405;53.964;13.448;2023-02-18T05:20:28;23.50;;;3.40;;
29432;SDS011;16405;53.964;13.448;2023-02-18T05:22:54;24.13;;;3.70;;
29432;SDS011;16405;53.964;13.448;2023-02-18T05:25:20;33.75;;;4.18;;
29432;SDS011;16405;53.964;13.448;2023-02-18T05:27:46;22.15;;;2.95;;
29432;SDS011;16405;53.964;13.448;2023-02-18T05:30:12;29.38;;;3.65;;
29432;SDS011;16405;53.964;13.448;2023-02-18T05:32:38;25.35;;;3.60;;
29432;SDS011;16405;53.964;13.448;2023-02-18T05:35:07;20.98;;;2.60;;
29432;SDS011;16405;53.964;13.448;2023-02-18T05:37:33;40.72;;;4.45;;
29432;SDS011;16405;53.964;13.448;2023-02-18T05:39:59;32.38;;;4.78;;
29432;SDS011;16405;53.964;13.448;2023-02-18T05:42:25;39.40;;;3.92;;
29432;SDS011;16405;53.964;13.448;2023-02-18T05:44:51;23.35;;;3.05;;
29432;SDS011;16405;53.964;13.448;2023-02-18T05:47:19;33.30;;;4.05;;
29432;SDS011;16405;53.964;13.448;2023-02-18T05:49:49;33.58;;;4.07;;
29432;SDS011;16405;53.964;13.448;2023-02-18T05:52:15;40.35;;;3.85;;
29432;SDS011;16405;53.964;13.448;2023-02-18T05:54:42;29.27;;;3.58;;
29432;SDS011;16405;53.964;13.448;2023-02-18T05:57:09;39.08;;;4.75;;
29432;SDS011;16405;53.964;13.448;2023-02-18T05:59:43;23.33;;;3.97;;
29432;SDS011;16405;53.964;13.448;2023-02-18T06:02:09;52.08;;;5.30;;
29432;SDS011;16405;53.964;13.448;2023-02-18T06:04:35;35.00;;;4.05;;
29432;SDS011;16405;53.964;13.448;2023-02-18T06:07:03;44.78;;;4.60;;
29432;SDS011;16405;53.964;13.448;2023-02-18T06:09:31;39.92;;;4.40;;
29432;SDS011;16405;53.964;13.448;2023-02-18T06:12:00;40.28;;;4.45;;
29432;SDS011;16405;53.964;13.448;2023-02-18T06:14:25;42.25;;;4.35;;
29432;SDS011;16405;53.964;13.448;2023-02-18T06:16:51;33.45;;;3.38;;
29432;SDS011;16405;53.964;13.448;2023-02-18T06:19:22;43.50;;;4.53;;
29432;SDS011;16405;53.964;13.448;2023-02-18T06:21:48;50.30;;;4.97;;
29432;SDS011;16405;53.964;13.448;2023-02-18T06:24:14;28.30;;;3.70;;
29432;SDS011;16405;53.964;13.448;2023-02-18T06:26:39;23.77;;;3.35;;
29432;SDS011;16405;53.964;13.448;2023-02-18T06:29:05;29.25;;;2.97;;
29432;SDS011;16405;53.964;13.448;2023-02-18T06:31:31;29.17;;;4.20;;
29432;SDS011;16405;53.964;13.448;2023-02-18T06:34:05;29.67;;;3.88;;
29432;SDS011;16405;53.964;13.448;2023-02-18T06:36:33;36.25;;;4.38;;
29432;SDS011;16405;53.964;13.448;2023-02-18T06:39:01;41.97;;;4.50;;
29432;SDS011;16405;53.964;13.448;2023-02-18T06:41:32;37.25;;;3.83;;
29432;SDS011;16405;53.964;13.448;2023-02-18T06:43:58;34.90;;;4.10;;
29432;SDS011;16405;53.964;13.448;2023-02-18T06:46:27;34.67;;;4.38;;
29432;SDS011;16405;53.964;13.448;2023-02-18T06:49:00;45.45;;;4.70;;
29432;SDS011;16405;53.964;13.448;2023-02-18T06:51:25;28.05;;;5.55;;
29432;SDS011;16405;53.964;13.448;2023-02-18T06:53:51;35.22;;;4.15;;
29432;SDS011;16405;53.964;13.448;2023-02-18T06:56:17;36.30;;;3.85;;
29432;SDS011;16405;53.964;13.448;2023-02-18T06:58:43;27.23;;;3.72;;
29432;SDS011;16405;53.964;13.448;2023-02-18T07:01:12;40.42;;;4.22;;
29432;SDS011;16405;53.964;13.448;2023-02-18T07:03:39;44.88;;;4.85;;
29432;SDS011;16405;53.964;13.448;2023-02-18T07:06:05;34.05;;;4.50;;
29432;SDS011;16405;53.964;13.448;2023-02-18T07:08:31;39.00;;;4.28;;
29432;SDS011;16405;53.964;13.448;2023-02-18T07:11:00;34.20;;;4.65;;
29432;SDS011;16405;53.964;13.448;2023-02-18T07:13:35;39.88;;;4.53;;
29432;SDS011;16405;53.964;13.448;2023-02-18T07:16:01;39.22;;;4.72;;
29432;SDS011;16405;53.964;13.448;2023-02-18T07:18:27;44.20;;;4.38;;
29432;SDS011;16405;53.964;13.448;2023-02-18T07:21:00;49.83;;;5.70;;
29432;SDS011;16405;53.964;13.448;2023-02-18T07:23:26;55.45;;;4.63;;
29432;SDS011;16405;53.964;13.448;2023-02-18T07:26:07;35.08;;;4.82;;
29432;SDS011;16405;53.964;13.448;2023-02-18T07:28:36;37.90;;;4.22;;
29432;SDS011;16405;53.964;13.448;2023-02-18T07:31:10;47.90;;;5.63;;
29432;SDS011;16405;53.964;13.448;2023-02-18T07:33:38;40.38;;;4.88;;
29432;SDS011;16405;53.964;13.448;2023-02-18T07:36:13;46.55;;;6.22;;
29432;SDS011;16405;53.964;13.448;2023-02-18T07:38:41;47.70;;;5.47;;
29432;SDS011;16405;53.964;13.448;2023-02-18T07:41:12;40.33;;;5.30;;
29432;SDS011;16405;53.964;13.448;2023-02-18T07:43:44;39.40;;;4.28;;
29432;SDS011;16405;53.964;13.448;2023-02-18T07:46:10;37.15;;;5.20;;
29432;SDS011;16405;53.964;13.448;2023-02-18T07:48:39;32.00;;;4.00;;
29432;SDS011;16405;53.964;13.448;2023-02-18T07:51:08;39.75;;;5.50;;
29432;SDS011;16405;53.964;13.448;2023-02-18T07:53:36;35.45;;;4.35;;
29432;SDS011;16405;53.964;13.448;2023-02-18T07:56:03;36.33;;;4.63;;
29432;SDS011;16405;53.964;13.448;2023-02-18T07:58:39;33.03;;;4.13;;
29432;SDS011;16405;53.964;13.448;2023-02-18T08:01:09;42.20;;;5.03;;
29432;SDS011;16405;53.964;13.448;2023-02-18T08:03:39;34.72;;;4.78;;
29432;SDS011;16405;53.964;13.448;2023-02-18T08:06:05;42.00;;;5.05;;
29432;SDS011;16405;53.964;13.448;2023-02-18T08:08:32;34.58;;;4.50;;
29432;SDS011;16405;53.964;13.448;2023-02-18T08:10:59;37.30;;;5.13;;
29432;SDS011;16405;53.964;13.448;2023-02-18T08:13:31;35.53;;;4.35;;
29432;SDS011;16405;53.964;13.448;2023-02-18T08:15:57;35.42;;;4.53;;
29432;SDS011;16405;53.964;13.448;2023-02-18T08:18:24;33.10;;;3.90;;
29432;SDS011;16405;53.964;13.448;2023-02-18T08:20:50;31.98;;;3.78;;
29432;SDS011;16405;53.964;13.448;2023-02-18T08:23:24;24.52;;;2.95;;
29432;SDS011;16405;53.964;13.448;2023-02-18T08:25:51;41.80;;;4.35;;
29432;SDS011;16405;53.964;13.448;2023-02-18T08:28:18;34.60;;;5.00;;
29432;SDS011;16405;53.964;13.448;2023-02-18T08:30:52;22.65;;;3.30;;
29432;SDS011;16405;53.964;13.448;2023-02-18T08:33:19;27.95;;;3.28;;
29432;SDS011;16405;53.964;13.448;2023-02-18T08:35:57;25.27;;;3.22;;
29432;SDS011;16405;53.964;13.448;2023-02-18T08:38:23;21.92;;;3.42;;
29432;SDS011;16405;53.964;13.448;2023-02-18T08:40:50;22.40;;;3.10;;
29432;SDS011;16405;53.964;13.448;2023-02-18T08:43:25;24.00;;;3.35;;
29432;SDS011;16405;53.964;13.448;2023-02-18T08:45:51;27.52;;;3.50;;
29432;SDS011;16405;53.964;13.448;2023-02-18T08:48:16;16.40;;;2.97;;
29432;SDS011;16405;53.964;13.448;2023-02-18T08:50:42;24.08;;;2.90;;
29432;SDS011;16405;53.964;13.448;2023-02-18T08:53:08;26.05;;;2.80;;
29432;SDS011;16405;53.964;13.448;2023-02-18T08:55:41;25.67;;;3.03;;
29432;SDS011;16405;53.964;13.448;2023-02-18T08:58:07;23.23;;;3.20;;
29432;SDS011;16405;53.964;13.448;2023-02-18T09:00:34;24.05;;;2.90;;
29432;SDS011;16405;53.964;13.448;2023-02-18T09:03:09;24.25;;;2.97;;
29432;SDS011;16405;53.964;13.448;2023-02-18T09:05:39;17.23;;;2.42;;
29432;SDS011;16405;53.964;13.448;2023-02-18T09:08:06;16.50;;;2.47;;
29432;SDS011;16405;53.964;13.448;2023-02-18T09:10:39;10.85;;;2.10;;
29432;SDS011;16405;53.964;13.448;2023-02-18T09:13:06;17.67;;;2.20;;
29432;SDS011;16405;53.964;13.448;2023-02-18T09:15:32;16.15;;;2.50;;
29432;SDS011;16405;53.964;13.448;2023-02-18T09:18:03;18.92;;;1.95;;
29432;SDS011;16405;53.964;13.448;2023-02-18T09:20:29;18.92;;;3.00;;
29432;SDS011;16405;53.964;13.448;2023-02-18T09:22:56;14.93;;;2.28;;
29432;SDS011;16405;53.964;13.448;2023-02-18T09:25:22;19.33;;;2.30;;
29432;SDS011;16405;53.964;13.448;2023-02-18T09:27:48;17.33;;;1.73;;
29432;SDS011;16405;53.964;13.448;2023-02-18T09:30:22;11.85;;;1.80;;
29432;SDS011;16405;53.964;13.448;2023-02-18T09:32:48;12.82;;;1.98;;
29432;SDS011;16405;53.964;13.448;2023-02-18T09:35:14;15.65;;;2.17;;
29432;SDS011;16405;53.964;13.448;2023-02-18T09:37:46;13.68;;;1.52;;
29432;SDS011;16405;53.964;13.448;2023-02-18T09:40:26;23.98;;;3.05;;
29432;SDS011;16405;53.964;13.448;2023-02-18T09:43:08;12.18;;;1.63;;
29432;SDS011;16405;53.964;13.448;2023-02-18T09:46:14;14.40;;;1.77;;
29432;SDS011;16405;53.964;13.448;2023-02-18T09:49:22;17.13;;;2.20;;
29432;SDS011;16405;53.964;13.448;2023-02-18T09:52:06;13.48;;;2.13;;
29432;SDS011;16405;53.964;13.448;2023-02-18T09:54:43;12.93;;;1.73;;
29432;SDS011;16405;53.964;13.448;2023-02-18T09:57:21;15.30;;;2.80;;
29432;SDS011;16405;53.964;13.448;2023-02-18T10:00:13;18.40;;;2.30;;
29432;SDS011;16405;53.964;13.448;2023-02-18T10:02:56;13.82;;;2.10;;
29432;SDS011;16405;53.964;13.448;2023-02-18T10:08:50;16.88;;;2.25;;
29432;SDS011;16405;53.964;13.448;2023-02-18T10:11:37;14.45;;;2.35;;
29432;SDS011;16405;53.964;13.448;2023-02-18T10:14:11;18.20;;;2.30;;
29432;SDS011;16405;53.964;13.448;2023-02-18T10:16:43;20.48;;;2.95;;
29432;SDS011;16405;53.964;13.448;2023-02-18T10:21:50;20.70;;;2.33;;
29432;SDS011;16405;53.964;13.448;2023-02-18T10:27:17;23.60;;;2.88;;
29432;SDS011;16405;53.964;13.448;2023-02-18T10:45:22;18.80;;;2.00;;
29432;SDS011;16405;53.964;13.448;2023-02-18T10:49:00;11.73;;;1.40;;
29432;SDS011;16405;53.964;13.448;2023-02-18T10:51:38;8.82;;;1.20;;
29432;SDS011;16405;53.964;13.448;2023-02-18T10:54:26;11.90;;;1.25;;
29432;SDS011;16405;53.964;13.448;2023-02-18T10:57:49;5.68;;;0.70;;
29432;SDS011;16405;53.964;13.448;2023-02-18T11:00:24;9.30;;;0.93;;
29432;SDS011;16405;53.964;13.448;2023-02-18T11:05:41;7.65;;;1.10;;
29432;SDS011;16405;53.964;13.448;2023-02-18T11:08:43;6.47;;;0.90;;
29432;SDS011;16405;53.964;13.448;2023-02-18T11:11:24;10.43;;;1.60;;
29432;SDS011;16405;53.964;13.448;2023-02-18T11:13:59;7.18;;;1.17;;
29432;SDS011;16405;53.964;13.448;2023-02-18T11:16:43;14.25;;;1.80;;
29432;SDS011;16405;53.964;13.448;2023-02-18T11:19:37;10.63;;;1.52;;
29432;SDS011;16405;53.964;13.448;2023-02-18T11:22:33;9.05;;;1.20;;
29432;SDS011;16405;53.964;13.448;2023-02-18T11:28:06;12.35;;;1.67;;
29432;SDS011;16405;53.964;13.448;2023-02-18T11:31:01;13.80;;;1.58;;
29432;SDS011;16405;53.964;13.448;2023-02-18T11:33:40;9.23;;;1.52;;
29432;SDS011;16405;53.964;13.448;2023-02-18T11:36:34;7.63;;;1.33;;
29432;SDS011;16405;53.964;13.448;2023-02-18T11:42:14;10.73;;;1.02;;
29432;SDS011;16405;53.964;13.448;2023-02-18T11:47:24;15.48;;;1.10;;
29432;SDS011;16405;53.964;13.448;2023-02-18T11:52:41;6.47;;;1.02;;
29432;SDS011;16405;53.964;13.448;2023-02-18T11:57:49;9.88;;;1.02;;
29432;SDS011;16405;53.964;13.448;2023-02-18T12:00:45;10.00;;;0.90;;
29432;SDS011;16405;53.964;13.448;2023-02-18T12:06:04;11.07;;;1.10;;
29432;SDS011;16405;53.964;13.448;2023-02-18T12:09:10;9.00;;;1.10;;
29432;SDS011;16405;53.964;13.448;2023-02-18T12:11:57;6.25;;;0.80;;
29432;SDS011;16405;53.964;13.448;2023-02-18T12:14:58;4.07;;;0.68;;
29432;SDS011;16405;53.964;13.448;2023-02-18T12:26:28;9.60;;;1.02;;
29432;SDS011;16405;53.964;13.448;2023-02-18T12:38:13;9.30;;;0.90;;
29432;SDS011;16405;53.964;13.448;2023-02-18T12:40:58;6.63;;;1.17;;
29432;SDS011;16405;53.964;13.448;2023-02-18T12:44:31;9.65;;;1.08;;
29432;SDS011;16405;53.964;13.448;2023-02-18T12:47:37;7.45;;;1.27;;
29432;SDS011;16405;53.964;13.448;2023-02-18T12:51:29;6.38;;;1.17;;
29432;SDS011;16405;53.964;13.448;2023-02-18T13:05:56;8.00;;;1.02;;
29432;SDS011;16405;53.964;13.448;2023-02-18T13:11:50;3.47;;;0.55;;
29432;SDS011;16405;53.964;13.448;2023-02-18T13:14:45;5.65;;;0.98;;
29432;SDS011;16405;53.964;13.448;2023-02-18T13:17:21;7.78;;;0.77;;
29432;SDS011;16405;53.964;13.448;2023-02-18T13:20:04;2.33;;;0.50;;
29432;SDS011;16405;53.964;13.448;2023-02-18T13:22:46;5.50;;;0.68;;
29432;SDS011;16405;53.964;13.448;2023-02-18T13:25:14;3.42;;;0.60;;
29432;SDS011;16405;53.964;13.448;2023-02-18T13:27:58;3.03;;;0.40;;
29432;SDS011;16405;53.964;13.448;2023-02-18T13:30:51;2.97;;;0.52;;
29432;SDS011;16405;53.964;13.448;2023-02-18T13:33:48;17.33;;;0.68;;
29432;SDS011;16405;53.964;13.448;2023-02-18T13:39:55;4.47;;;0.65;;
29432;SDS011;16405;53.964;13.448;2023-02-18T13:46:09;6.97;;;1.00;;
29432;SDS011;16405;53.964;13.448;2023-02-18T13:57:21;2.72;;;0.60;;
29432;SDS011;16405;53.964;13.448;2023-02-18T13:59:51;2.75;;;0.77;;
29432;SDS011;16405;53.964;13.448;2023-02-18T14:02:31;9.23;;;0.80;;
29432;SDS011;16405;53.964;13.448;2023-02-18T14:16:00;10.68;;;1.27;;
29432;SDS011;16405;53.964;13.448;2023-02-18T14:26:30;6.20;;;0.60;;
29432;SDS011;16405;53.964;13.448;2023-02-18T14:29:41;6.32;;;0.50;;
29432;SDS011;16405;53.964;13.448;2023-02-18T14:32:10;4.38;;;1.00;;
29432;SDS011;16405;53.964;13.448;2023-02-18T14:34:50;8.32;;;1.73;;
29432;SDS011;16405;53.964;13.448;2023-02-18T14:37:41;4.40;;;1.25;;
29432;SDS011;16405;53.964;13.448;2023-02-18T14:46:32;3.10;;;0.30;;
29432;SDS011;16405;53.964;13.448;2023-02-18T14:52:16;2.97;;;0.50;;
29432;SDS011;16405;53.964;13.448;2023-02-18T14:54:47;1.65;;;0.60;;
29432;SDS011;16405;53.964;13.448;2023-02-18T15:04:23;2.33;;;0.60;;
29432;SDS011;16405;53.964;13.448;2023-02-18T15:07:04;1.48;;;0.57;;
29432;SDS011;16405;53.964;13.448;2023-02-18T15:13:42;1.92;;;0.55;;
29432;SDS011;16405;53.964;13.448;2023-02-18T15:16:14;3.47;;;0.50;;
29432;SDS011;16405;53.964;13.448;2023-02-18T15:18:59;3.70;;;0.60;;
29432;SDS011;16405;53.964;13.448;2023-02-18T15:21:39;5.38;;;0.50;;
29432;SDS011;16405;53.964;13.448;2023-02-18T15:24:36;3.10;;;0.57;;
29432;SDS011;16405;53.964;13.448;2023-02-18T15:27:04;1.58;;;0.40;;
29432;SDS011;16405;53.964;13.448;2023-02-18T15:29:51;2.33;;;0.50;;
29432;SDS011;16405;53.964;13.448;2023-02-18T15:32:54;1.60;;;0.57;;
29432;SDS011;16405;53.964;13.448;2023-02-18T15:35:25;2.60;;;0.57;;
29432;SDS011;16405;53.964;13.448;2023-02-18T15:37:58;2.60;;;0.77;;
29432;SDS011;16405;53.964;13.448;2023-02-18T15:40:27;3.35;;;0.60;;
29432;SDS011;16405;53.964;13.448;2023-02-18T15:42:58;4.32;;;0.38;;
29432;SDS011;16405;53.964;13.448;2023-02-18T15:45:36;2.80;;;0.50;;
29432;SDS011;16405;53.964;13.448;2023-02-18T15:48:42;4.47;;;0.60;;
29432;SDS011;16405;53.964;13.448;2023-02-18T15:51:11;3.15;;;0.57;;
29432;SDS011;16405;53.964;13.448;2023-02-18T15:53:41;3.78;;;0.73;;
29432;SDS011;16405;53.964;13.448;2023-02-18T15:56:17;3.30;;;0.40;;
29432;SDS011;16405;53.964;13.448;2023-02-18T16:02:11;3.97;;;0.88;;
29432;SDS011;16405;53.964;13.448;2023-02-18T16:04:54;3.88;;;0.70;;
29432;SDS011;16405;53.964;13.448;2023-02-18T16:07:48;2.05;;;0.60;;
29432;SDS011;16405;53.964;13.448;2023-02-18T16:13:05;6.20;;;0.60;;
29432;SDS011;16405;53.964;13.448;2023-02-18T16:15:32;3.97;;;0.70;;
29432;SDS011;16405;53.964;13.448;2023-02-18T16:24:17;3.55;;;0.50;;
29432;SDS011;16405;53.964;13.448;2023-02-18T16:26:51;6.05;;;0.80;;
29432;SDS011;16405;53.964;13.448;2023-02-18T16:29:23;2.97;;;0.82;;
29432;SDS011;16405;53.964;13.448;2023-02-18T16:32:05;6.15;;;1.10;;
29432;SDS011;16405;53.964;13.448;2023-02-18T16:34:31;10.15;;;1.00;;
29432;SDS011;16405;53.964;13.448;2023-02-18T16:37:43;1.42;;;0.80;;
29432;SDS011;16405;53.964;13.448;2023-02-18T16:40:53;4.80;;;0.80;;
29432;SDS011;16405;53.964;13.448;2023-02-18T16:46:16;2.22;;;0.77;;
29432;SDS011;16405;53.964;13.448;2023-02-18T16:48:54;5.78;;;0.85;;
29432;SDS011;16405;53.964;13.448;2023-02-18T16:51:33;3.25;;;0.90;;
29432;SDS011;16405;53.964;13.448;2023-02-18T16:57:24;4.97;;;1.10;;
29432;SDS011;16405;53.964;13.448;2023-02-18T17:00:01;5.32;;;0.90;;
29432;SDS011;16405;53.964;13.448;2023-02-18T17:02:30;3.47;;;1.27;;
29432;SDS011;16405;53.964;13.448;2023-02-18T17:08:23;6.03;;;1.77;;
29432;SDS011;16405;53.964;13.448;2023-02-18T17:11:32;2.53;;;1.33;;
29432;SDS011;16405;53.964;13.448;2023-02-18T17:14:12;6.10;;;1.55;;
29432;SDS011;16405;53.964;13.448;2023-02-18T17:16:51;5.78;;;1.70;;
29432;SDS011;16405;53.964;13.448;2023-02-18T17:19:18;7.38;;;2.15;;
29432;SDS011;16405;53.964;13.448;2023-02-18T17:21:45;4.30;;;1.63;;
29432;SDS011;16405;53.964;13.448;2023-02-18T17:27:14;6.05;;;1.92;;
29432;SDS011;16405;53.964;13.448;2023-02-18T17:30:30;7.45;;;2.13;;
29432;SDS011;16405;53.964;13.448;2023-02-18T17:33:13;4.00;;;2.08;;
29432;SDS011;16405;53.964;13.448;2023-02-18T17:36:04;5.82;;;2.40;;
29432;SDS011;16405;53.964;13.448;2023-02-18T17:38:31;6.63;;;3.10;;
29432;SDS011;16405;53.964;13.448;2023-02-18T17:43:52;8.98;;;3.33;;
29432;SDS011;16405;53.964;13.448;2023-02-18T17:46:31;6.53;;;3.40;;
29432;SDS011;16405;53.964;13.448;2023-02-18T17:49:12;8.05;;;4.20;;
29432;SDS011;16405;53.964;13.448;2023-02-18T17:56:56;3.20;;;2.25;;
29432;SDS011;16405;53.964;13.448;2023-02-18T18:00:26;7.60;;;3.78;;
29432;SDS011;16405;53.964;13.448;2023-02-18T18:12:41;9.98;;;4.78;;
29432;SDS011;16405;53.964;13.448;2023-02-18T18:15:21;13.60;;;5.63;;
29432;SDS011;16405;53.964;13.448;2023-02-18T18:18:33;12.65;;;5.60;;
29432;SDS011;16405;53.964;13.448;2023-02-18T18:21:27;17.33;;;6.55;;
29432;SDS011;16405;53.964;13.448;2023-02-18T18:24:41;13.02;;;6.03;;
29432;SDS011;16405;53.964;13.448;2023-02-18T18:28:05;11.13;;;5.53;;
29432;SDS011;16405;53.964;13.448;2023-02-18T18:30:44;11.50;;;5.18;;
29432;SDS011;16405;53.964;13.448;2023-02-18T18:33:30;14.13;;;6.75;;
29432;SDS011;16405;53.964;13.448;2023-02-18T18:36:21;11.10;;;6.60;;
29432;SDS011;16405;53.964;13.448;2023-02-18T18:39:02;10.98;;;6.20;;
29432;SDS011;16405;53.964;13.448;2023-02-18T18:41:42;15.13;;;6.07;;
29432;SDS011;16405;53.964;13.448;2023-02-18T18:44:08;13.70;;;6.65;;